sensor_id;sensor_type;location;lat;lon;timestamp;pressure;altitude;pressure_sealevel;temperature;humidity
25638;BME280;13496;51.040;13.680;2022-12-29T00:04:45;99154.47;;;16.78;54.11
25638;BME280;13496;51.040;13.680;2022-12-29T00:09:47;99156.06;;;16.79;53.99
25638;BME280;13496;51.040;13.680;2022-12-29T00:14:48;99156.06;;;16.79;53.99
25638;BME280;13496;51.040;13.680;2022-12-29T00:20:09;99149.22;;;16.78;54.18
25638;BME280;13496;51.040;13.680;2022-12-29T00:25:29;99125.63;;;16.78;54.01
25638;BME280;13496;51.040;13.680;2022-12-29T00:30:49;99119.38;;;16.79;54.10
25638;BME280;13496;51.040;13.680;2022-12-29T00:36:16;99108.09;;;16.79;54.08
25638;BME280;13496;51.040;13.680;2022-12-29T00:41:19;99113.34;;;16.79;53.88
25638;BME280;13496;51.040;13.680;2022-12-29T00:46:41;99109.94;;;16.78;54.03
25638;BME280;13496;51.040;13.680;2022-12-29T00:51:43;99109.13;;;16.78;53.99
25638;BME280;13496;51.040;13.680;2022-12-29T00:56:49;99102.06;;;16.78;53.97
25638;BME280;13496;51.040;13.680;2022-12-29T01:01:53;99102.88;;;16.79;53.82
25638;BME280;13496;51.040;13.680;2022-12-29T01:06:55;99111.75;;;16.78;54.13
25638;BME280;13496;51.040;13.680;2022-12-29T01:11:57;99103.06;;;16.77;53.96
25638;BME280;13496;51.040;13.680;2022-12-29T01:16:59;99104.09;;;16.76;53.65
25638;BME280;13496;51.040;13.680;2022-12-29T01:22:00;99104.88;;;16.77;53.89
25638;BME280;13496;51.040;13.680;2022-12-29T01:27:03;99099.66;;;16.77;53.82
25638;BME280;13496;51.040;13.680;2022-12-29T01:32:05;99097.84;;;16.77;53.76
25638;BME280;13496;51.040;13.680;2022-12-29T01:37:06;99098.84;;;16.76;53.86
25638;BME280;13496;51.040;13.680;2022-12-29T01:42:16;99093.59;;;16.76;53.73
25638;BME280;13496;51.040;13.680;2022-12-29T01:52:40;99098.84;;;16.76;53.93
25638;BME280;13496;51.040;13.680;2022-12-29T01:57:46;99088.53;;;16.75;54.02
25638;BME280;13496;51.040;13.680;2022-12-29T02:02:52;99071.00;;;16.75;54.12
25638;BME280;13496;51.040;13.680;2022-12-29T02:07:54;99068.59;;;16.74;53.93
25638;BME280;13496;51.040;13.680;2022-12-29T02:12:56;99062.34;;;16.75;54.00
25638;BME280;13496;51.040;13.680;2022-12-29T02:18:13;99057.28;;;16.73;53.87
25638;BME280;13496;51.040;13.680;2022-12-29T02:33:54;99046.81;;;16.73;53.78
25638;BME280;13496;51.040;13.680;2022-12-29T02:44:16;99043.56;;;16.71;54.06
25638;BME280;13496;51.040;13.680;2022-12-29T02:49:27;99037.50;;;16.70;53.80
25638;BME280;13496;51.040;13.680;2022-12-29T02:54:33;99037.50;;;16.70;53.75
25638;BME280;13496;51.040;13.680;2022-12-29T02:59:44;99044.34;;;16.72;53.77
25638;BME280;13496;51.040;13.680;2022-12-29T03:05:33;99036.72;;;16.70;53.70
25638;BME280;13496;51.040;13.680;2022-12-29T03:11:02;99034.88;;;16.70;53.77
25638;BME280;13496;51.040;13.680;2022-12-29T03:21:34;99026.22;;;16.70;53.61
25638;BME280;13496;51.040;13.680;2022-12-29T03:26:59;99025.44;;;16.69;53.84
25638;BME280;13496;51.040;13.680;2022-12-29T03:32:09;99014.16;;;16.69;53.63
25638;BME280;13496;51.040;13.680;2022-12-29T03:37:17;99010.50;;;16.70;53.76
25638;BME280;13496;51.040;13.680;2022-12-29T03:42:23;99000.03;;;16.70;53.74
25638;BME280;13496;51.040;13.680;2022-12-29T03:47:27;98993.19;;;16.69;53.63
25638;BME280;13496;51.040;13.680;2022-12-29T03:52:29;98993.19;;;16.69;53.93
25638;BME280;13496;51.040;13.680;2022-12-29T03:57:31;98993.19;;;16.69;53.60
25638;BME280;13496;51.040;13.680;2022-12-29T04:02:36;98994.00;;;16.69;53.52
25638;BME280;13496;51.040;13.680;2022-12-29T04:07:38;98974.84;;;16.69;53.78
25638;BME280;13496;51.040;13.680;2022-12-29T04:12:40;98978.47;;;16.68;53.54
25638;BME280;13496;51.040;13.680;2022-12-29T04:17:43;98977.47;;;16.69;53.76
25638;BME280;13496;51.040;13.680;2022-12-29T04:22:45;98969.00;;;16.67;53.74
25638;BME280;13496;51.040;13.680;2022-12-29T04:27:48;98971.41;;;16.68;53.67
25638;BME280;13496;51.040;13.680;2022-12-29T04:33:14;98971.41;;;16.68;53.46
25638;BME280;13496;51.040;13.680;2022-12-29T04:38:17;98960.94;;;16.68;53.49
25638;BME280;13496;51.040;13.680;2022-12-29T04:43:19;98964.56;;;16.67;53.68
25638;BME280;13496;51.040;13.680;2022-12-29T04:48:38;98966.38;;;16.67;53.60
25638;BME280;13496;51.040;13.680;2022-12-29T04:53:58;98975.84;;;16.68;53.25
25638;BME280;13496;51.040;13.680;2022-12-29T04:59:01;98975.84;;;16.68;53.59
25638;BME280;13496;51.040;13.680;2022-12-29T05:04:03;98975.84;;;16.68;53.35
25638;BME280;13496;51.040;13.680;2022-12-29T05:09:05;98991.56;;;16.68;53.17
25638;BME280;13496;51.040;13.680;2022-12-29T05:14:07;98985.50;;;16.67;53.38
25638;BME280;13496;51.040;13.680;2022-12-29T05:19:10;98997.59;;;16.68;53.22
25638;BME280;13496;51.040;13.680;2022-12-29T05:24:13;98990.75;;;16.67;53.52
25638;BME280;13496;51.040;13.680;2022-12-29T05:29:16;98987.31;;;16.67;53.23
25638;BME280;13496;51.040;13.680;2022-12-29T05:34:18;98998.81;;;16.66;53.27
25638;BME280;13496;51.040;13.680;2022-12-29T05:39:20;99009.28;;;16.66;53.50
25638;BME280;13496;51.040;13.680;2022-12-29T05:44:27;99019.56;;;16.67;53.54
25638;BME280;13496;51.040;13.680;2022-12-29T05:49:45;99020.56;;;16.66;53.40
25638;BME280;13496;51.040;13.680;2022-12-29T05:55:22;99006.66;;;16.66;53.65
25638;BME280;13496;51.040;13.680;2022-12-29T06:00:27;99019.75;;;16.66;53.28
25638;BME280;13496;51.040;13.680;2022-12-29T06:05:29;99019.75;;;16.66;53.50
25638;BME280;13496;51.040;13.680;2022-12-29T06:10:33;99025.81;;;16.66;53.27
25638;BME280;13496;51.040;13.680;2022-12-29T06:15:40;99029.44;;;16.65;53.46
25638;BME280;13496;51.040;13.680;2022-12-29T06:20:43;99020.56;;;16.66;53.45
25638;BME280;13496;51.040;13.680;2022-12-29T06:25:47;99034.47;;;16.67;53.39
25638;BME280;13496;51.040;13.680;2022-12-29T06:30:49;99010.91;;;16.67;53.74
25638;BME280;13496;51.040;13.680;2022-12-29T06:35:53;99008.28;;;16.67;53.63
25638;BME280;13496;51.040;13.680;2022-12-29T06:40:54;99004.03;;;16.66;53.46
25638;BME280;13496;51.040;13.680;2022-12-29T06:46:16;99004.03;;;16.66;53.48
25638;BME280;13496;51.040;13.680;2022-12-29T06:51:17;99000.41;;;16.67;53.46
25638;BME280;13496;51.040;13.680;2022-12-29T06:56:19;99004.66;;;16.68;53.34
25638;BME280;13496;51.040;13.680;2022-12-29T07:01:21;99012.72;;;16.66;53.67
25638;BME280;13496;51.040;13.680;2022-12-29T07:06:23;99010.91;;;16.67;53.43
25638;BME280;13496;51.040;13.680;2022-12-29T07:11:24;99005.66;;;16.67;53.67
25638;BME280;13496;51.040;13.680;2022-12-29T07:16:26;99016.94;;;16.67;53.43
25638;BME280;13496;51.040;13.680;2022-12-29T07:21:27;99035.09;;;16.69;53.35
25638;BME280;13496;51.040;13.680;2022-12-29T07:26:29;99024.63;;;16.69;53.67
25638;BME280;13496;51.040;13.680;2022-12-29T07:31:31;99044.75;;;16.68;53.52
25638;BME280;13496;51.040;13.680;2022-12-29T07:36:32;99023.59;;;16.70;53.40
25638;BME280;13496;51.040;13.680;2022-12-29T07:41:34;99013.94;;;16.70;53.40
25638;BME280;13496;51.040;13.680;2022-12-29T07:46:37;99006.88;;;16.71;53.59
25638;BME280;13496;51.040;13.680;2022-12-29T07:51:39;99017.34;;;16.71;53.54
25638;BME280;13496;51.040;13.680;2022-12-29T07:56:40;99020.59;;;16.73;53.18
25638;BME280;13496;51.040;13.680;2022-12-29T08:01:42;99005.72;;;16.74;53.39
25638;BME280;13496;51.040;13.680;2022-12-29T08:06:44;99025.69;;;16.75;53.35
25638;BME280;13496;51.040;13.680;2022-12-29T08:11:46;99035.13;;;16.76;53.47
25638;BME280;13496;51.040;13.680;2022-12-29T08:16:48;99042.81;;;16.77;53.45
25638;BME280;13496;51.040;13.680;2022-12-29T08:21:50;99043.63;;;16.78;53.14
25638;BME280;13496;51.040;13.680;2022-12-29T08:26:52;99051.91;;;16.81;53.27
25638;BME280;13496;51.040;13.680;2022-12-29T08:31:54;99047.28;;;16.83;53.17
25638;BME280;13496;51.040;13.680;2022-12-29T08:36:55;99048.91;;;16.84;53.67
25638;BME280;13496;51.040;13.680;2022-12-29T08:41:57;99054.75;;;16.86;53.27
25638;BME280;13496;51.040;13.680;2022-12-29T08:46:59;99052.13;;;16.86;52.96
25638;BME280;13496;51.040;13.680;2022-12-29T08:52:00;99060.63;;;16.88;53.10
25638;BME280;13496;51.040;13.680;2022-12-29T08:57:02;99050.13;;;16.88;53.17
25638;BME280;13496;51.040;13.680;2022-12-29T09:02:12;99058.59;;;16.90;53.19
25638;BME280;13496;51.040;13.680;2022-12-29T09:07:13;99049.75;;;16.91;53.14
25638;BME280;13496;51.040;13.680;2022-12-29T09:12:16;99046.13;;;16.92;53.08
25638;BME280;13496;51.040;13.680;2022-12-29T09:17:18;99030.41;;;16.92;52.96
25638;BME280;13496;51.040;13.680;2022-12-29T09:22:38;99026.78;;;16.93;52.89
25638;BME280;13496;51.040;13.680;2022-12-29T09:27:40;99034.25;;;16.97;52.82
25638;BME280;13496;51.040;13.680;2022-12-29T09:32:41;99031.63;;;16.97;52.89
25638;BME280;13496;51.040;13.680;2022-12-29T09:37:43;99034.25;;;16.97;52.83
25638;BME280;13496;51.040;13.680;2022-12-29T09:42:55;99042.91;;;16.97;52.74
25638;BME280;13496;51.040;13.680;2022-12-29T09:48:00;99045.34;;;16.99;52.93
25638;BME280;13496;51.040;13.680;2022-12-29T09:53:19;99044.13;;;17.01;52.87
25638;BME280;13496;51.040;13.680;2022-12-29T09:58:34;99044.56;;;17.05;52.86
25638;BME280;13496;51.040;13.680;2022-12-29T10:03:50;99040.53;;;17.09;53.35
25638;BME280;13496;51.040;13.680;2022-12-29T10:09:33;99037.53;;;17.12;53.09
25638;BME280;13496;51.040;13.680;2022-12-29T10:20:51;99039.78;;;17.22;53.00
25638;BME280;13496;51.040;13.680;2022-12-29T10:25:58;99030.53;;;17.26;53.10
25638;BME280;13496;51.040;13.680;2022-12-29T10:31:04;99017.63;;;17.31;52.79
25638;BME280;13496;51.040;13.680;2022-12-29T10:36:18;99020.47;;;17.36;53.09
25638;BME280;13496;51.040;13.680;2022-12-29T10:41:27;99013.84;;;17.40;52.85
25638;BME280;13496;51.040;13.680;2022-12-29T10:46:35;99000.34;;;17.43;52.81
25638;BME280;13496;51.040;13.680;2022-12-29T10:51:41;99006.97;;;17.46;52.74
25638;BME280;13496;51.040;13.680;2022-12-29T10:56:49;98985.47;;;17.97;51.77
25638;BME280;13496;51.040;13.680;2022-12-29T11:02:00;98981.38;;;18.47;50.56
25638;BME280;13496;51.040;13.680;2022-12-29T11:07:07;98986.81;;;19.10;49.52
25638;BME280;13496;51.040;13.680;2022-12-29T11:12:24;98981.44;;;19.30;48.63
25638;BME280;13496;51.040;13.680;2022-12-29T11:17:27;98974.13;;;18.94;49.24
25638;BME280;13496;51.040;13.680;2022-12-29T11:22:28;98968.16;;;18.67;49.92
25638;BME280;13496;51.040;13.680;2022-12-29T11:27:30;98973.88;;;18.51;50.20
25638;BME280;13496;51.040;13.680;2022-12-29T11:32:32;98977.13;;;18.40;50.35
25638;BME280;13496;51.040;13.680;2022-12-29T11:37:38;98976.13;;;18.34;50.47
25638;BME280;13496;51.040;13.680;2022-12-29T11:42:58;98970.69;;;18.29;50.79
25638;BME280;13496;51.040;13.680;2022-12-29T11:53:22;98962.22;;;18.20;50.90
25638;BME280;13496;51.040;13.680;2022-12-29T11:58:29;98974.13;;;18.16;51.02
25638;BME280;13496;51.040;13.680;2022-12-29T12:03:36;98964.88;;;18.13;51.23
25638;BME280;13496;51.040;13.680;2022-12-29T12:08:51;98954.38;;;18.07;51.35
25638;BME280;13496;51.040;13.680;2022-12-29T12:14:02;98956.59;;;18.03;51.37
25638;BME280;13496;51.040;13.680;2022-12-29T12:19:33;98962.47;;;17.99;51.57
25638;BME280;13496;51.040;13.680;2022-12-29T12:24:53;98960.03;;;17.97;51.50
25638;BME280;13496;51.040;13.680;2022-12-29T12:30:19;98968.09;;;17.96;51.37
25638;BME280;13496;51.040;13.680;2022-12-29T12:40:40;98956.19;;;17.93;51.51
25638;BME280;13496;51.040;13.680;2022-12-29T12:51:14;98938.44;;;17.88;51.90
25638;BME280;13496;51.040;13.680;2022-12-29T13:02:11;98931.38;;;17.89;51.87
25638;BME280;13496;51.040;13.680;2022-12-29T13:18:11;98934.41;;;17.93;52.00
25638;BME280;13496;51.040;13.680;2022-12-29T13:28:33;98943.06;;;17.93;51.85
25638;BME280;13496;51.040;13.680;2022-12-29T13:33:51;98942.25;;;17.93;51.81
25638;BME280;13496;51.040;13.680;2022-12-29T13:39:35;98943.06;;;17.93;52.06
25638;BME280;13496;51.040;13.680;2022-12-29T13:44:46;98958.00;;;17.93;51.86
25638;BME280;13496;51.040;13.680;2022-12-29T13:49:51;98950.13;;;17.93;51.58
25638;BME280;13496;51.040;13.680;2022-12-29T13:55:26;98958.00;;;17.93;51.34
25638;BME280;13496;51.040;13.680;2022-12-29T14:01:04;98965.88;;;17.93;51.93
25638;BME280;13496;51.040;13.680;2022-12-29T14:11:33;98967.09;;;17.90;52.15
25638;BME280;13496;51.040;13.680;2022-12-29T14:16:38;98959.44;;;17.88;51.80
25638;BME280;13496;51.040;13.680;2022-12-29T14:21:40;98963.66;;;17.89;51.70
25638;BME280;13496;51.040;13.680;2022-12-29T14:26:42;98970.09;;;17.87;51.80
25638;BME280;13496;51.040;13.680;2022-12-29T14:31:44;98966.50;;;17.88;51.76
25638;BME280;13496;51.040;13.680;2022-12-29T14:36:55;98973.75;;;17.86;51.83
25638;BME280;13496;51.040;13.680;2022-12-29T14:42:05;98972.16;;;17.85;51.90
25638;BME280;13496;51.040;13.680;2022-12-29T14:47:07;98988.06;;;17.83;51.63
25638;BME280;13496;51.040;13.680;2022-12-29T14:52:19;98989.09;;;17.82;51.68
25638;BME280;13496;51.040;13.680;2022-12-29T14:57:27;98986.47;;;17.82;51.51
25638;BME280;13496;51.040;13.680;2022-12-29T15:02:34;98983.03;;;17.82;51.44
25638;BME280;13496;51.040;13.680;2022-12-29T15:07:39;98978.81;;;17.81;51.47
25638;BME280;13496;51.040;13.680;2022-12-29T15:12:47;99009.50;;;17.80;51.26
25638;BME280;13496;51.040;13.680;2022-12-29T15:17:50;98999.97;;;17.79;50.72
25638;BME280;13496;51.040;13.680;2022-12-29T15:23:04;99010.47;;;17.79;50.78
25638;BME280;13496;51.040;13.680;2022-12-29T15:28:11;99014.94;;;17.79;51.09
25638;BME280;13496;51.040;13.680;2022-12-29T15:33:21;99021.19;;;17.78;50.93
25638;BME280;13496;51.040;13.680;2022-12-29T15:38:27;99019.59;;;17.77;50.80
25638;BME280;13496;51.040;13.680;2022-12-29T15:43:41;99028.44;;;17.76;50.81
25638;BME280;13496;51.040;13.680;2022-12-29T15:48:44;99056.31;;;17.77;50.46
25638;BME280;13496;51.040;13.680;2022-12-29T15:53:48;99071.03;;;17.78;50.73
25638;BME280;13496;51.040;13.680;2022-12-29T15:58:51;99070.25;;;17.77;50.58
25638;BME280;13496;51.040;13.680;2022-12-29T16:03:53;99068.63;;;17.76;50.65
25638;BME280;13496;51.040;13.680;2022-12-29T16:14:10;99085.34;;;17.75;50.88
25638;BME280;13496;51.040;13.680;2022-12-29T16:19:26;99090.59;;;17.75;50.48
25638;BME280;13496;51.040;13.680;2022-12-29T16:24:32;99090.78;;;17.74;50.82
25638;BME280;13496;51.040;13.680;2022-12-29T16:29:34;99101.28;;;17.74;50.35
25638;BME280;13496;51.040;13.680;2022-12-29T16:39:39;99109.31;;;17.72;50.53
25638;BME280;13496;51.040;13.680;2022-12-29T16:44:41;99116.41;;;17.72;51.62
25638;BME280;13496;51.040;13.680;2022-12-29T16:49:49;99104.09;;;17.72;51.58
25638;BME280;13496;51.040;13.680;2022-12-29T16:54:55;99106.91;;;17.71;51.34
25638;BME280;13496;51.040;13.680;2022-12-29T17:00:00;99119.81;;;17.72;51.65
25638;BME280;13496;51.040;13.680;2022-12-29T17:05:02;99116.41;;;17.72;51.52
25638;BME280;13496;51.040;13.680;2022-12-29T17:10:04;99124.28;;;17.72;51.74
25638;BME280;13496;51.040;13.680;2022-12-29T17:15:26;99125.28;;;17.71;51.51
25638;BME280;13496;51.040;13.680;2022-12-29T17:20:30;99128.91;;;17.70;51.96
25638;BME280;13496;51.040;13.680;2022-12-29T17:25:34;99131.34;;;17.71;51.97
25638;BME280;13496;51.040;13.680;2022-12-29T17:30:37;99137.59;;;17.70;51.97
25638;BME280;13496;51.040;13.680;2022-12-29T17:35:40;99148.09;;;17.70;51.88
25638;BME280;13496;51.040;13.680;2022-12-29T17:40:42;99148.91;;;17.71;52.15
25638;BME280;13496;51.040;13.680;2022-12-29T17:45:46;99137.59;;;17.70;52.39
25638;BME280;13496;51.040;13.680;2022-12-29T17:50:51;99138.41;;;17.71;52.43
25638;BME280;13496;51.040;13.680;2022-12-29T17:55:53;99146.28;;;17.71;52.05
25638;BME280;13496;51.040;13.680;2022-12-29T18:00:57;99157.78;;;17.70;52.21
25638;BME280;13496;51.040;13.680;2022-12-29T18:05:59;99152.72;;;17.68;51.62
25638;BME280;13496;51.040;13.680;2022-12-29T18:11:01;99157.78;;;17.70;52.25
25638;BME280;13496;51.040;13.680;2022-12-29T18:16:03;99159.38;;;17.71;52.37
25638;BME280;13496;51.040;13.680;2022-12-29T18:21:04;99160.41;;;17.70;52.29
25638;BME280;13496;51.040;13.680;2022-12-29T18:26:13;99159.59;;;17.69;52.30
25638;BME280;13496;51.040;13.680;2022-12-29T18:31:20;99151.72;;;17.69;52.64
25638;BME280;13496;51.040;13.680;2022-12-29T18:36:22;99162.22;;;17.69;52.50
25638;BME280;13496;51.040;13.680;2022-12-29T18:41:26;99159.59;;;17.69;52.68
25638;BME280;13496;51.040;13.680;2022-12-29T18:46:31;99152.72;;;17.68;52.88
25638;BME280;13496;51.040;13.680;2022-12-29T18:51:32;99149.28;;;17.67;52.59
25638;BME280;13496;51.040;13.680;2022-12-29T18:56:34;99145.66;;;17.69;52.59
25638;BME280;13496;51.040;13.680;2022-12-29T19:01:36;99145.84;;;17.67;52.86
25638;BME280;13496;51.040;13.680;2022-12-29T19:06:37;99164.00;;;17.69;52.58
25638;BME280;13496;51.040;13.680;2022-12-29T19:11:39;99160.41;;;17.70;52.93
25638;BME280;13496;51.040;13.680;2022-12-29T19:16:41;99140.41;;;17.69;52.73
25638;BME280;13496;51.040;13.680;2022-12-29T19:21:42;99144.84;;;17.68;52.88
25638;BME280;13496;51.040;13.680;2022-12-29T19:26:44;99151.72;;;17.69;53.06
25638;BME280;13496;51.040;13.680;2022-12-29T19:31:46;99155.34;;;17.68;52.91
25638;BME280;13496;51.040;13.680;2022-12-29T19:36:48;99148.28;;;17.69;53.09
25638;BME280;13496;51.040;13.680;2022-12-29T19:41:49;99156.13;;;17.69;52.80
25638;BME280;13496;51.040;13.680;2022-12-29T19:46:51;99150.88;;;17.69;53.15
25638;BME280;13496;51.040;13.680;2022-12-29T19:51:53;99155.16;;;17.70;52.78
25638;BME280;13496;51.040;13.680;2022-12-29T19:56:54;99141.22;;;17.69;52.92
25638;BME280;13496;51.040;13.680;2022-12-29T20:01:56;99137.78;;;17.69;53.18
25638;BME280;13496;51.040;13.680;2022-12-29T20:06:58;99136.00;;;17.69;52.31
25638;BME280;13496;51.040;13.680;2022-12-29T20:11:59;99135.16;;;17.69;53.15
25638;BME280;13496;51.040;13.680;2022-12-29T20:17:01;99138.59;;;17.69;52.93
25638;BME280;13496;51.040;13.680;2022-12-29T20:22:05;99144.84;;;17.68;53.18
25638;BME280;13496;51.040;13.680;2022-12-29T20:27:09;99138.59;;;17.69;53.14
25638;BME280;13496;51.040;13.680;2022-12-29T20:32:13;99138.59;;;17.69;53.15
25638;BME280;13496;51.040;13.680;2022-12-29T20:37:16;99147.28;;;17.70;52.94
25638;BME280;13496;51.040;13.680;2022-12-29T20:42:17;99157.78;;;17.70;53.38
25638;BME280;13496;51.040;13.680;2022-12-29T20:47:19;99139.59;;;17.68;52.96
25638;BME280;13496;51.040;13.680;2022-12-29T20:52:21;99155.16;;;17.70;53.08
25638;BME280;13496;51.040;13.680;2022-12-29T20:57:23;99152.72;;;17.68;53.45
25638;BME280;13496;51.040;13.680;2022-12-29T21:02:24;99151.72;;;17.69;53.12
25638;BME280;13496;51.040;13.680;2022-12-29T21:07:26;99173.53;;;17.70;53.37
25638;BME280;13496;51.040;13.680;2022-12-29T21:12:28;99169.47;;;17.67;53.90
25638;BME280;13496;51.040;13.680;2022-12-29T21:17:29;99172.72;;;17.69;53.31
25638;BME280;13496;51.040;13.680;2022-12-29T21:22:31;99179.97;;;17.67;52.98
25638;BME280;13496;51.040;13.680;2022-12-29T21:27:33;99193.72;;;17.69;53.22
25638;BME280;13496;51.040;13.680;2022-12-29T21:32:34;99201.56;;;17.69;53.43
25638;BME280;13496;51.040;13.680;2022-12-29T21:37:36;99198.31;;;17.67;53.46
25638;BME280;13496;51.040;13.680;2022-12-29T21:42:38;99203.56;;;17.67;52.99
25638;BME280;13496;51.040;13.680;2022-12-29T21:47:39;99219.31;;;17.67;53.36
25638;BME280;13496;51.040;13.680;2022-12-29T21:52:59;99221.13;;;17.66;53.18
25638;BME280;13496;51.040;13.680;2022-12-29T21:58:01;99233.22;;;17.67;53.10
25638;BME280;13496;51.040;13.680;2022-12-29T22:03:21;99235.06;;;17.67;53.39
25638;BME280;13496;51.040;13.680;2022-12-29T22:08:41;99240.50;;;17.65;53.60
25638;BME280;13496;51.040;13.680;2022-12-29T22:14:01;99249.34;;;17.64;53.24
25638;BME280;13496;51.040;13.680;2022-12-29T22:19:03;99258.06;;;17.65;53.25
25638;BME280;13496;51.040;13.680;2022-12-29T22:24:05;99259.69;;;17.66;53.30
25638;BME280;13496;51.040;13.680;2022-12-29T22:29:07;99269.38;;;17.65;53.17
25638;BME280;13496;51.040;13.680;2022-12-29T22:34:09;99273.81;;;17.65;53.20
25638;BME280;13496;51.040;13.680;2022-12-29T22:39:11;99275.59;;;17.64;53.34
25638;BME280;13496;51.040;13.680;2022-12-29T22:44:13;99266.75;;;17.65;53.20
25638;BME280;13496;51.040;13.680;2022-12-29T22:49:14;99265.09;;;17.64;53.50
25638;BME280;13496;51.040;13.680;2022-12-29T22:54:16;99259.03;;;17.64;53.22
25638;BME280;13496;51.040;13.680;2022-12-29T22:59:21;99259.03;;;17.64;53.51
25638;BME280;13496;51.040;13.680;2022-12-29T23:04:22;99265.31;;;17.63;53.26
25638;BME280;13496;51.040;13.680;2022-12-29T23:09:24;99280.25;;;17.62;53.44
25638;BME280;13496;51.040;13.680;2022-12-29T23:14:26;99289.94;;;17.62;53.62
25638;BME280;13496;51.040;13.680;2022-12-29T23:19:27;99287.31;;;17.62;53.45
25638;BME280;13496;51.040;13.680;2022-12-29T23:24:29;99277.63;;;17.62;53.58
25638;BME280;13496;51.040;13.680;2022-12-29T23:29:30;99279.44;;;17.62;53.46
25638;BME280;13496;51.040;13.680;2022-12-29T23:34:32;99283.88;;;17.61;53.53
25638;BME280;13496;51.040;13.680;2022-12-29T23:39:34;99276.81;;;17.62;53.46
25638;BME280;13496;51.040;13.680;2022-12-29T23:44:35;99293.53;;;17.61;53.29
25638;BME280;13496;51.040;13.680;2022-12-29T23:49:37;99306.66;;;17.61;53.20
25638;BME280;13496;51.040;13.680;2022-12-29T23:54:38;99298.97;;;17.59;52.90
25638;BME280;13496;51.040;13.680;2022-12-29T23:59:40;99307.66;;;17.60;53.64
